»·PEaware :: ACA792 KLAX-KSFO

ACA792 :: KLAX-KSFO

FLIGHT INFORMATION

Flight Status: Arrived
Operator:
Air Canada
More flights by this operator :: More flights under this callsign
Pilot: Jamie M. (26320)
Aircraft: Unknown
(B788)
More flights by this aircraft type
Origin: KLAX Los Angeles Intl
United States
Destination: KSFO San Francisco Intl
United States
More flights between these airports :: More routes between these airports
Route: +SUMMR1 STOKD SERFR SERFR3
File this flight plan on PilotEdge
Remarks: RMK / SIMBRIEF
Altitude:
(Current/Filed)
32,000ft
Speed:
(Current/Filed)
431kts
Departed: 21-Sep-19 05:15 PM
Arrived: 21-Sep-19 06:03 PM
Distance/Time
Traveled:
294nm/0:47
Distance/Time
To Go:
Arrived

Flight Plot

Page will automatically refresh every two minutes.

Flight plan parsing failed; only flown route is shown


Map Options




Map Legend


Flown Route
Filed Route
Departure Airport
Arrival Airport
Navaid (VOR, NDB)
Fix

Horizontal Profiles

Position Reports

Time Latitude Longitude Heading Altitude Ground
Speed
21-Sep-19 16:45 33.946980 -118.407888 173 139ft 0kts
21-Sep-19 16:46 33.946980 -118.407888 173 139ft 0kts
21-Sep-19 16:47 33.946980 -118.407888 173 139ft 0kts
21-Sep-19 16:48 33.946980 -118.407888 173 139ft 0kts
21-Sep-19 16:49 33.946980 -118.407888 173 139ft 0kts
21-Sep-19 16:50 33.946980 -118.407888 173 139ft 0kts
21-Sep-19 16:51 33.946980 -118.407888 173 139ft 0kts
21-Sep-19 16:52 33.946980 -118.407888 173 139ft 0kts
21-Sep-19 16:53 33.946980 -118.407888 173 139ft 0kts
21-Sep-19 16:54 33.946980 -118.407888 173 139ft 0kts
21-Sep-19 16:55 33.946980 -118.407888 173 139ft 0kts
21-Sep-19 16:56 33.946980 -118.407888 173 139ft 0kts
21-Sep-19 16:57 33.946980 -118.407888 173 139ft 0kts
21-Sep-19 16:58 33.946980 -118.407888 173 139ft 0kts
21-Sep-19 16:59 33.946980 -118.407888 173 139ft 0kts
21-Sep-19 17:00 33.946980 -118.407888 173 139ft 0kts
21-Sep-19 17:01 33.946980 -118.407888 173 139ft 0kts
21-Sep-19 17:02 33.946980 -118.407888 173 139ft 0kts
21-Sep-19 17:03 33.947458 -118.407960 172 139ft 0kts
21-Sep-19 17:04 33.947672 -118.407667 273 139ft 2kts
21-Sep-19 17:05 33.947672 -118.407350 263 139ft 0kts
21-Sep-19 17:06 33.947671 -118.407353 263 139ft 0kts
21-Sep-19 17:07 33.947515 -118.406991 52 139ft 7kts
21-Sep-19 17:08 33.948809 -118.404423 85 139ft 12kts
21-Sep-19 17:09 33.949107 -118.402014 48 139ft 0kts
21-Sep-19 17:10 33.949109 -118.402011 48 139ft 0kts
21-Sep-19 17:11 33.949112 -118.402007 48 139ft 0kts
21-Sep-19 17:12 33.949114 -118.402004 48 139ft 0kts
21-Sep-19 17:13 33.950083 -118.402639 262 139ft 0kts
21-Sep-19 17:14 33.946156 -118.441143 262 1210ft 199kts
21-Sep-19 17:15 33.941696 -118.514902 265 3701ft 252kts
21-Sep-19 17:16 33.934712 -118.605013 265 7605ft 282kts
21-Sep-19 17:17 33.927008 -118.704145 265 10837ft 321kts
21-Sep-19 17:18 33.918669 -118.821153 269 12050ft 368kts
21-Sep-19 17:19 33.920519 -118.945974 272 14893ft 377kts
21-Sep-19 17:20 33.967552 -119.058865 312 18002ft 398kts
21-Sep-19 17:21 34.047568 -119.154808 316 21020ft 414kts
21-Sep-19 17:22 34.133849 -119.252725 316 22839ft 429kts
21-Sep-19 17:23 34.221985 -119.352705 316 24988ft 443kts
21-Sep-19 17:24 34.312773 -119.456067 316 27349ft 455kts
21-Sep-19 17:25 34.406142 -119.562668 315 29395ft 467kts
21-Sep-19 17:26 34.501531 -119.671875 314 31287ft 477kts
21-Sep-19 17:27 34.598052 -119.782783 314 31902ft 478kts
21-Sep-19 17:28 34.694779 -119.894283 314 31906ft 478kts
21-Sep-19 17:29 34.790811 -120.005374 314 31937ft 477kts
21-Sep-19 17:30 34.887184 -120.117316 314 31939ft 479kts
21-Sep-19 17:31 34.983626 -120.229583 314 31940ft 479kts
21-Sep-19 17:32 35.079956 -120.342164 314 31946ft 480kts
21-Sep-19 17:33 35.176231 -120.455116 314 31942ft 480kts
21-Sep-19 17:34 35.272309 -120.568183 314 31930ft 480kts
21-Sep-19 17:35 35.368461 -120.681716 314 31923ft 481kts
21-Sep-19 17:36 35.465685 -120.794723 318 31930ft 481kts
21-Sep-19 17:37 35.570212 -120.898013 321 31929ft 482kts
21-Sep-19 17:38 35.676836 -120.997531 321 31920ft 483kts
21-Sep-19 17:39 35.784238 -121.097873 321 31918ft 484kts
21-Sep-19 17:40 35.890634 -121.197450 321 30921ft 476kts
21-Sep-19 17:41 35.995288 -121.295732 321 30164ft 470kts
21-Sep-19 17:42 36.101655 -121.388906 326 29480ft 467kts
21-Sep-19 17:43 36.210622 -121.475489 326 27963ft 460kts
21-Sep-19 17:44 36.317630 -121.559351 327 26118ft 450kts
21-Sep-19 17:45 36.421809 -121.641157 327 24346ft 439kts
21-Sep-19 17:46 36.523340 -121.721184 327 22656ft 426kts
21-Sep-19 17:47 36.622015 -121.799263 327 21025ft 414kts
21-Sep-19 17:48 36.718292 -121.874199 334 19368ft 402kts
21-Sep-19 17:49 36.824592 -121.915691 345 17426ft 394kts
21-Sep-19 17:50 36.928754 -121.946306 346 15401ft 377kts
21-Sep-19 17:51 37.027297 -121.982420 342 13464ft 356kts
21-Sep-19 17:52 37.116049 -122.017088 342 11536ft 313kts
21-Sep-19 17:53 37.195122 -122.048036 343 9879ft 282kts
21-Sep-19 17:54 37.267838 -122.076545 343 8265ft 265kts
21-Sep-19 17:55 37.336864 -122.103698 343 6776ft 255kts
21-Sep-19 17:56 37.404099 -122.129836 343 6023ft 252kts
21-Sep-19 17:57 37.469178 -122.161157 314 5147ft 255kts
21-Sep-19 17:58 37.520627 -122.217696 326 3297ft 236kts
21-Sep-19 17:59 37.570341 -122.257836 318 2245ft 184kts
21-Sep-19 18:00 37.594787 -122.312447 296 798ft 167kts
21-Sep-19 18:01 37.615275 -122.361222 295 40ft 138kts
21-Sep-19 18:02 37.622174 -122.379120 275 26ft 19kts
21-Sep-19 18:03 37.621245 -122.383084 202 26ft 0kts
21-Sep-19 18:04 37.620723 -122.383360 203 26ft 10kts
21-Sep-19 18:05 37.621937 -122.387525 296 26ft 21kts
21-Sep-19 18:06 37.621111 -122.391653 207 26ft 16kts
21-Sep-19 18:07 37.619563 -122.394812 198 26ft 5kts
21-Sep-19 18:08 37.617728 -122.393705 117 26ft 8kts
21-Sep-19 18:09 37.617521 -122.393063 88 26ft 8kts
21-Sep-19 18:10 37.617698 -122.392826 29 26ft 0kts
21-Sep-19 18:11 37.617698 -122.392826 29 26ft 0kts

Navigation Log

Ident Type
Flight plan parsing failed, navigation log unavailable